createdAt,value
2023-02-03T00:00:28.668Z,100991.97
2023-02-03T00:01:10.319Z,100975.28
2023-02-03T00:01:52.002Z,100985.56
2023-02-03T00:02:33.711Z,100976.34
2023-02-03T00:03:15.444Z,100996.13
2023-02-03T00:03:57.305Z,100981.09
2023-02-03T00:04:38.948Z,101002.09
2023-02-03T00:05:21.564Z,100963.75
2023-02-03T00:06:04.299Z,100987.00
2023-02-03T00:06:46.555Z,100966.16
2023-02-03T00:07:28.273Z,100985.03
2023-02-03T00:08:11.116Z,100987.66
2023-02-03T00:08:56.660Z,100985.19
2023-02-03T00:09:38.383Z,100962.66
2023-02-03T00:10:21.534Z,100985.03
2023-02-03T00:11:03.216Z,100977.13
2023-02-03T00:11:44.993Z,100978.94
2023-02-03T00:12:26.736Z,100947.81
2023-02-03T00:13:09.183Z,100983.22
2023-02-03T00:13:51.098Z,100986.72
2023-02-03T00:14:33.652Z,100959.59
2023-02-03T00:15:15.380Z,100978.09
2023-02-03T00:15:57.193Z,100980.47
2023-02-03T00:16:39.102Z,100987.66
2023-02-03T00:17:20.949Z,100979.63
2023-02-03T00:18:02.889Z,100973.09
2023-02-03T00:18:44.551Z,100984.06
2023-02-03T00:19:26.179Z,100986.72
2023-02-03T00:20:10.025Z,100959.84
2023-02-03T00:20:51.769Z,100984.91
2023-02-03T00:21:33.504Z,100982.41
2023-02-03T00:22:15.092Z,100962.69
2023-02-03T00:23:04.721Z,100994.81
2023-02-03T00:23:46.400Z,101000.22
2023-02-03T00:24:28.013Z,100996.28
2023-02-03T00:25:10.000Z,101003.22
2023-02-03T00:25:52.408Z,100994.22
2023-02-03T00:26:34.083Z,100999.63
2023-02-03T00:27:15.826Z,100982.94
2023-02-03T00:27:57.894Z,100981.28
2023-02-03T00:28:40.229Z,100951.91
2023-02-03T00:29:25.730Z,100989.34
2023-02-03T00:30:07.723Z,100978.75
2023-02-03T00:30:49.703Z,100992.94
2023-02-03T00:31:31.559Z,100992.09
2023-02-03T00:32:13.507Z,100977.13
2023-02-03T00:32:55.506Z,100990.06
2023-02-03T00:33:38.978Z,100937.19
2023-02-03T00:34:21.296Z,100950.16
2023-02-03T00:35:02.988Z,100972.41
2023-02-03T00:35:44.660Z,100969.06
2023-02-03T00:36:27.185Z,100978.09
2023-02-03T00:37:08.920Z,100964.88
2023-02-03T00:37:56.287Z,100958.34
2023-02-03T00:38:38.040Z,100958.47
2023-02-03T00:39:19.745Z,100985.19
2023-02-03T00:40:01.595Z,100977.66
2023-02-03T00:40:43.297Z,100987.00
2023-02-03T00:41:29.749Z,100980.06
2023-02-03T00:42:11.381Z,100984.63
2023-02-03T00:42:53.084Z,100973.03
2023-02-03T00:43:34.860Z,100989.03
2023-02-03T00:44:16.545Z,100986.66
2023-02-03T00:44:58.185Z,100964.97
2023-02-03T00:45:39.879Z,100990.84
2023-02-03T00:46:21.581Z,100955.78
2023-02-03T00:47:03.260Z,100968.31
2023-02-03T00:47:44.979Z,100999.72
2023-02-03T00:48:26.687Z,100987.38
2023-02-03T00:49:08.415Z,100996.94
2023-02-03T00:49:50.490Z,100989.03
2023-02-03T00:50:32.143Z,100957.88
2023-02-03T00:51:13.818Z,100976.97
2023-02-03T00:51:55.499Z,100965.97
2023-02-03T00:52:37.237Z,100955.72
2023-02-03T00:53:18.953Z,100973.41
2023-02-03T00:54:00.896Z,100960.63
2023-02-03T00:54:44.484Z,100954.19
2023-02-03T00:55:26.139Z,100961.59
2023-02-03T00:56:12.596Z,100959.94
2023-02-03T00:56:54.337Z,100938.22
2023-02-03T00:57:35.972Z,100959.09
2023-02-03T00:58:17.700Z,100957.41
2023-02-03T00:58:59.381Z,100957.56
2023-02-03T00:59:41.029Z,100952.66
2023-02-03T01:00:24.653Z,100945.88
2023-02-03T01:01:07.567Z,100929.28
2023-02-03T01:01:50.982Z,100946.84
2023-02-03T01:02:32.703Z,100953.78
2023-02-03T01:03:14.518Z,100956.00
2023-02-03T01:03:56.545Z,100955.72
2023-02-03T01:04:38.356Z,100953.78
2023-02-03T01:05:19.998Z,100944.00
2023-02-03T01:06:19.111Z,100934.44
2023-02-03T01:07:01.733Z,100933.75
2023-02-03T01:07:43.349Z,100959.06
2023-02-03T01:08:25.196Z,100950.44
2023-02-03T01:09:07.092Z,100958.06
2023-02-03T01:09:48.977Z,100952.78
2023-02-03T01:10:30.837Z,100954.47
2023-02-03T01:11:15.395Z,100947.53
2023-02-03T01:11:57.120Z,100947.69
2023-02-03T01:12:38.820Z,100954.75
2023-02-03T01:13:20.443Z,100955.59
2023-02-03T01:14:02.158Z,100953.78
2023-02-03T01:14:44.040Z,100951.41
2023-02-03T01:15:25.746Z,100944.84
2023-02-03T01:16:09.433Z,100965.72
2023-02-03T01:16:51.100Z,100962.94
2023-02-03T01:17:33.403Z,100960.31
2023-02-03T01:18:15.289Z,100958.47
2023-02-03T01:18:58.984Z,100962.09
2023-02-03T01:19:42.467Z,100968.78
2023-02-03T01:20:24.366Z,100966.16
2023-02-03T01:21:11.572Z,100965.19
2023-02-03T01:21:53.226Z,100963.94
2023-02-03T01:22:35.025Z,100965.19
2023-02-03T01:23:16.689Z,100978.38
2023-02-03T01:23:59.467Z,100967.97
2023-02-03T01:24:41.097Z,100981.97
2023-02-03T01:25:22.717Z,100965.59
2023-02-03T01:26:09.425Z,100958.38
2023-02-03T01:26:51.046Z,100979.50
2023-02-03T01:27:33.417Z,100974.25
2023-02-03T01:28:15.137Z,100933.75
2023-02-03T01:29:00.892Z,100988.38
2023-02-03T01:29:42.630Z,100979.75
2023-02-03T01:30:24.748Z,100977.13
2023-02-03T01:31:16.104Z,100953.63
2023-02-03T01:31:57.946Z,100973.09
2023-02-03T01:32:39.789Z,100938.34
2023-02-03T01:33:21.511Z,100968.25
2023-02-03T01:34:04.040Z,100959.38
2023-02-03T01:34:45.688Z,100943.66
2023-02-03T01:35:27.442Z,100947.38
2023-02-03T01:36:09.826Z,100954.78
2023-02-03T01:36:51.573Z,100947.97
2023-02-03T01:37:33.216Z,100960.34
2023-02-03T01:38:14.875Z,100961.31
2023-02-03T01:38:56.509Z,100971.19
2023-02-03T01:39:38.146Z,100956.25
2023-02-03T01:40:19.910Z,100958.97
2023-02-03T01:41:01.619Z,100934.50
2023-02-03T01:41:44.443Z,100956.03
2023-02-03T01:42:31.947Z,100952.44
2023-02-03T01:43:29.620Z,100914.06
2023-02-03T01:44:42.860Z,100940.22
2023-02-03T01:45:24.629Z,100913.97
2023-02-03T01:46:49.135Z,100938.75
2023-02-03T01:47:35.084Z,100931.41
2023-02-03T01:48:16.763Z,100912.19
2023-02-03T01:49:08.077Z,100932.78
2023-02-03T01:49:56.673Z,100914.41
2023-02-03T01:50:38.434Z,100904.84
2023-02-03T01:51:22.124Z,100898.44
2023-02-03T01:52:05.099Z,100919.56
2023-02-03T01:52:58.027Z,100921.94
2023-02-03T01:53:40.777Z,100901.75
2023-02-03T01:54:28.819Z,100910.81
2023-02-03T01:55:17.516Z,100878.03
2023-02-03T01:56:00.976Z,100893.75
2023-02-03T01:56:47.072Z,100916.13
2023-02-03T01:57:36.665Z,100911.81
2023-02-03T01:58:24.745Z,100904.59
2023-02-03T01:59:06.976Z,100903.63
2023-02-03T01:59:52.300Z,100910.56
2023-02-03T02:00:34.127Z,100898.16
2023-02-03T02:01:17.533Z,100899.56
2023-02-03T02:02:04.748Z,100893.19
2023-02-03T02:02:48.936Z,100901.13
2023-02-03T02:03:48.384Z,100899.97
2023-02-03T02:04:37.060Z,100897.63
2023-02-03T02:05:24.779Z,100884.94
2023-02-03T02:06:09.711Z,100919.56
2023-02-03T02:06:51.695Z,100910.28
2023-02-03T02:07:35.825Z,100907.63
2023-02-03T02:08:19.666Z,100905.13
2023-02-03T02:09:01.833Z,100889.28
2023-02-03T02:09:45.245Z,100892.28
2023-02-03T02:10:28.764Z,100867.25
2023-02-03T02:11:10.703Z,100876.47
2023-02-03T02:11:52.864Z,100852.28
2023-02-03T02:12:34.585Z,100860.91
2023-02-03T02:13:19.312Z,100858.97
2023-02-03T02:14:03.218Z,100850.50
2023-02-03T02:14:48.425Z,100832.47
2023-02-03T02:15:54.374Z,100826.75
2023-02-03T02:16:54.451Z,100834.22
2023-02-03T02:18:00.947Z,100840.88
2023-02-03T02:19:03.082Z,100865.69
2023-02-03T02:19:56.536Z,100867.47
2023-02-03T02:20:54.651Z,100884.13
2023-02-03T02:21:54.760Z,100876.22
2023-02-03T02:22:57.465Z,100879.28
2023-02-03T02:23:56.769Z,100874.72
2023-02-03T02:24:44.301Z,100871.09
2023-02-03T02:25:37.709Z,100871.09
2023-02-03T02:26:43.232Z,100882.63
2023-02-03T02:27:46.561Z,100878.16
2023-02-03T02:28:46.767Z,100868.47
2023-02-03T02:29:55.953Z,100860.44
2023-02-03T02:30:55.098Z,100856.00
2023-02-03T02:32:02.384Z,100861.41
2023-02-03T02:32:58.821Z,100862.53
2023-02-03T02:33:51.965Z,100867.78
2023-02-03T02:34:42.516Z,100865.28
2023-02-03T02:36:02.690Z,100862.53
2023-02-03T02:37:07.872Z,100865.56
2023-02-03T02:37:59.081Z,100863.50
2023-02-03T02:38:57.959Z,100863.50
2023-02-03T02:39:48.264Z,100868.91
2023-02-03T02:40:38.745Z,100841.38
2023-02-03T02:41:36.608Z,100870.97
2023-02-03T02:42:47.991Z,100872.78
2023-02-03T02:43:44.377Z,100871.69
2023-02-03T02:44:41.723Z,100858.75
2023-02-03T02:45:29.916Z,100863.91
2023-02-03T02:46:17.819Z,100847.69
2023-02-03T02:47:05.283Z,100859.59
2023-02-03T02:47:47.662Z,100859.47
2023-02-03T02:48:32.783Z,100859.34
2023-02-03T02:49:26.929Z,100867.25
2023-02-03T02:50:18.528Z,100866.16
2023-02-03T02:51:03.412Z,100868.66
2023-02-03T02:51:48.411Z,100865.06
2023-02-03T02:52:36.115Z,100860.75
2023-02-03T02:53:22.823Z,100838.38
2023-02-03T02:54:09.114Z,100854.06
2023-02-03T02:54:54.574Z,100825.31
2023-02-03T02:55:41.090Z,100849.75
2023-02-03T02:56:25.566Z,100823.09
2023-02-03T02:57:11.940Z,100845.59
2023-02-03T02:57:56.848Z,100840.47
2023-02-03T02:58:41.492Z,100842.13
2023-02-03T02:59:23.171Z,100845.03
2023-02-03T03:00:06.046Z,100847.81
2023-02-03T03:00:48.347Z,100848.66
2023-02-03T03:01:30.702Z,100841.69
2023-02-03T03:02:12.469Z,100828.91
2023-02-03T03:02:54.527Z,100840.47
2023-02-03T03:03:40.494Z,100828.53
2023-02-03T03:04:26.116Z,100844.75
2023-02-03T03:05:12.195Z,100847.56
2023-02-03T03:06:05.817Z,100835.28
2023-02-03T03:06:58.827Z,100847.94
2023-02-03T03:07:48.485Z,100857.50
2023-02-03T03:08:46.742Z,100855.00
2023-02-03T03:09:36.708Z,100859.44
2023-02-03T03:10:24.678Z,100844.03
2023-02-03T03:11:07.258Z,100869.16
2023-02-03T03:11:58.820Z,100865.81
2023-02-03T03:12:47.010Z,100868.56
2023-02-03T03:13:34.280Z,100859.66
2023-02-03T03:14:19.915Z,100869.13
2023-02-03T03:15:18.133Z,100870.91
2023-02-03T03:16:01.923Z,100872.97
2023-02-03T03:16:50.513Z,100880.03
2023-02-03T03:17:40.546Z,100875.59
2023-02-03T03:18:37.476Z,100858.22
2023-02-03T03:19:23.261Z,100852.13
2023-02-03T03:20:10.790Z,100872.13
2023-02-03T03:20:55.871Z,100857.72
2023-02-03T03:21:46.622Z,100860.59
2023-02-03T03:22:34.374Z,100850.91
2023-02-03T03:23:30.256Z,100858.91
2023-02-03T03:24:23.813Z,100885.50
2023-02-03T03:25:13.328Z,100896.03
2023-02-03T03:26:22.103Z,100878.22
2023-02-03T03:27:33.828Z,100884.25
2023-02-03T03:28:21.113Z,100890.34
2023-02-03T03:29:11.167Z,100892.97
2023-02-03T03:30:16.999Z,100883.69
2023-02-03T03:30:58.804Z,100889.38
2023-02-03T03:31:41.315Z,100866.16
2023-02-03T03:32:23.967Z,100889.78
2023-02-03T03:33:07.492Z,100900.63
2023-02-03T03:33:49.684Z,100908.53
2023-02-03T03:34:32.603Z,100915.72
2023-02-03T03:35:14.317Z,100909.38
2023-02-03T03:36:08.048Z,100912.84
2023-02-03T03:37:02.560Z,100919.06
2023-02-03T03:37:52.454Z,100897.38
2023-02-03T03:38:46.161Z,100894.03
2023-02-03T03:39:49.528Z,100911.31
2023-02-03T03:40:44.454Z,100892.13
2023-02-03T03:41:40.602Z,100910.09
2023-02-03T03:42:36.200Z,100908.81
2023-02-03T03:43:21.682Z,100909.78
2023-02-03T03:44:08.610Z,100903.00
2023-02-03T03:45:16.393Z,100908.81
2023-02-03T03:46:03.891Z,100909.94
2023-02-03T03:46:52.004Z,100912.13
2023-02-03T03:47:42.873Z,100910.91
2023-02-03T03:48:36.859Z,100892.97
2023-02-03T03:49:22.144Z,100896.47
2023-02-03T03:50:06.031Z,100894.78
2023-02-03T03:50:53.262Z,100898.72
2023-02-03T03:51:58.902Z,100902.31
2023-02-03T03:52:41.668Z,100894.53
2023-02-03T03:53:27.883Z,100898.72
2023-02-03T03:54:13.892Z,100883.94
2023-02-03T03:54:57.147Z,100888.25
2023-02-03T03:55:40.868Z,100881.13
2023-02-03T03:56:33.080Z,100910.22
2023-02-03T03:57:30.673Z,100904.09
2023-02-03T03:58:28.028Z,100877.84
2023-02-03T03:59:14.129Z,100893.81
2023-02-03T03:59:57.080Z,100892.97
2023-02-03T04:00:40.449Z,100870.34
2023-02-03T04:01:23.854Z,100899.22
2023-02-03T04:02:05.966Z,100893.13
2023-02-03T04:02:51.838Z,100894.78
2023-02-03T04:03:39.983Z,100896.59
2023-02-03T04:04:24.379Z,100895.88
2023-02-03T04:05:08.462Z,100876.56
2023-02-03T04:05:50.493Z,100888.78
2023-02-03T04:06:32.147Z,100889.84
2023-02-03T04:07:14.047Z,100884.88
2023-02-03T04:07:55.656Z,100863.69
2023-02-03T04:08:37.365Z,100877.63
2023-02-03T04:09:19.103Z,100884.56
2023-02-03T04:10:00.878Z,100860.75
2023-02-03T04:10:43.845Z,100881.63
2023-02-03T04:11:44.220Z,100862.81
2023-02-03T04:12:25.861Z,100884.75
2023-02-03T04:13:09.327Z,100875.84
2023-02-03T04:13:50.973Z,100888.22
2023-02-03T04:14:35.318Z,100871.09
2023-02-03T04:15:17.100Z,100830.72
2023-02-03T04:15:58.896Z,100888.63
2023-02-03T04:16:40.654Z,100851.84
2023-02-03T04:17:22.345Z,100897.63
2023-02-03T04:18:04.772Z,100903.00
2023-02-03T04:18:46.357Z,100872.94
2023-02-03T04:19:28.057Z,100901.59
2023-02-03T04:20:10.552Z,100897.75
2023-02-03T04:20:52.159Z,100896.06
2023-02-03T04:21:33.770Z,100899.53
2023-02-03T04:22:15.414Z,100896.56
2023-02-03T04:22:58.033Z,100905.66
2023-02-03T04:23:40.012Z,100910.91
2023-02-03T04:24:21.740Z,100917.00
2023-02-03T04:25:03.637Z,100913.53
2023-02-03T04:25:45.237Z,100911.69
2023-02-03T04:26:27.088Z,100913.47
2023-02-03T04:27:08.846Z,100898.56
2023-02-03T04:27:50.817Z,100891.50
2023-02-03T04:28:32.580Z,100919.06
2023-02-03T04:29:14.248Z,100918.09
2023-02-03T04:29:55.829Z,100910.31
2023-02-03T04:30:37.458Z,100911.28
2023-02-03T04:31:19.312Z,100918.22
2023-02-03T04:32:01.083Z,100915.59
2023-02-03T04:32:42.801Z,100879.34
2023-02-03T04:33:24.425Z,100904.09
2023-02-03T04:34:06.769Z,100881.19
2023-02-03T04:34:48.440Z,100905.53
2023-02-03T04:35:30.063Z,100889.78
2023-02-03T04:36:11.711Z,100898.00
2023-02-03T04:36:53.368Z,100901.09
2023-02-03T04:37:35.063Z,100908.28
2023-02-03T04:38:16.686Z,100902.44
2023-02-03T04:38:58.353Z,100908.28
2023-02-03T04:39:40.042Z,100887.53
2023-02-03T04:40:21.718Z,100904.94
2023-02-03T04:41:03.472Z,100904.09
2023-02-03T04:41:45.135Z,100915.47
2023-02-03T04:42:26.954Z,100904.34
2023-02-03T04:43:08.692Z,100902.44
2023-02-03T04:43:50.426Z,100903.78
2023-02-03T04:44:32.126Z,100899.09
2023-02-03T04:45:13.849Z,100911.50
2023-02-03T04:45:55.600Z,100898.34
2023-02-03T04:46:37.328Z,100876.75
2023-02-03T04:47:19.295Z,100907.63
2023-02-03T04:48:00.941Z,100886.88
2023-02-03T04:48:42.548Z,100921.50
2023-02-03T04:49:24.282Z,100902.75
2023-02-03T04:50:06.516Z,100907.75
2023-02-03T04:50:48.200Z,100904.44
2023-02-03T04:51:29.782Z,100911.09
2023-02-03T04:52:12.617Z,100918.63
2023-02-03T04:52:54.318Z,100929.84
2023-02-03T04:53:36.877Z,100925.44
2023-02-03T04:54:18.503Z,100907.19
2023-02-03T04:55:00.402Z,100925.97
2023-02-03T04:55:42.132Z,100923.81
2023-02-03T04:56:23.735Z,100921.41
2023-02-03T04:57:06.297Z,100899.22
2023-02-03T04:57:47.940Z,100917.31
2023-02-03T04:58:29.907Z,100904.78
2023-02-03T04:59:11.539Z,100916.47
2023-02-03T04:59:53.179Z,100875.31
2023-02-03T05:00:34.809Z,100920.09
2023-02-03T05:01:16.556Z,100918.28
2023-02-03T05:01:58.399Z,100908.13
2023-02-03T05:02:40.140Z,100902.28
2023-02-03T05:03:24.145Z,100908.25
2023-02-03T05:04:07.341Z,100898.50
2023-02-03T05:04:48.920Z,100916.75
2023-02-03T05:05:30.787Z,100916.16
2023-02-03T05:06:12.551Z,100917.56
2023-02-03T05:06:56.170Z,100911.34
2023-02-03T05:07:37.789Z,100913.03
2023-02-03T05:08:19.419Z,100898.72
2023-02-03T05:09:04.028Z,100879.69
2023-02-03T05:09:45.695Z,100886.81
2023-02-03T05:10:27.558Z,100895.53
2023-02-03T05:11:09.354Z,100884.28
2023-02-03T05:11:51.159Z,100887.63
2023-02-03T05:12:33.382Z,100867.50
2023-02-03T05:13:15.037Z,100880.97
2023-02-03T05:13:56.903Z,100876.66
2023-02-03T05:14:38.901Z,100865.25
2023-02-03T05:15:20.543Z,100882.31
2023-02-03T05:16:02.233Z,100879.81
2023-02-03T05:16:44.392Z,100875.53
2023-02-03T05:17:26.411Z,100890.22
2023-02-03T05:18:08.026Z,100890.34
2023-02-03T05:18:49.821Z,100897.28
2023-02-03T05:19:31.538Z,100866.28
2023-02-03T05:20:13.316Z,100880.03
2023-02-03T05:20:54.935Z,100830.09
2023-02-03T05:21:36.598Z,100899.22
2023-02-03T05:22:18.388Z,100870.00
2023-02-03T05:23:01.232Z,100876.69
2023-02-03T05:23:42.872Z,100875.84
2023-02-03T05:24:24.470Z,100870.84
2023-02-03T05:25:06.557Z,100879.44
2023-02-03T05:25:49.040Z,100891.81
2023-02-03T05:26:30.705Z,100886.56
2023-02-03T05:27:12.354Z,100895.16
2023-02-03T05:27:53.983Z,100898.13
2023-02-03T05:28:35.698Z,100883.28
2023-02-03T05:29:17.389Z,100895.78
2023-02-03T05:29:59.011Z,100896.75
2023-02-03T05:30:40.905Z,100884.56
2023-02-03T05:31:22.754Z,100883.84
2023-02-03T05:32:04.715Z,100881.34
2023-02-03T05:32:46.408Z,100879.81
2023-02-03T05:33:29.297Z,100878.16
2023-02-03T05:34:10.947Z,100843.81
2023-02-03T05:34:52.655Z,100879.13
2023-02-03T05:35:34.512Z,100874.94
2023-02-03T05:36:16.227Z,100875.91
2023-02-03T05:36:58.594Z,100878.41
2023-02-03T05:37:40.221Z,100880.34
2023-02-03T05:38:22.093Z,100882.84
2023-02-03T05:39:03.758Z,100880.50
2023-02-03T05:39:45.318Z,100882.31
2023-02-03T05:40:46.088Z,100872.00
2023-02-03T05:41:46.427Z,100871.59
2023-02-03T05:42:28.041Z,100858.75
2023-02-03T05:43:09.865Z,100880.91
2023-02-03T05:43:52.641Z,100853.81
2023-02-03T05:44:34.310Z,100846.44
2023-02-03T05:45:16.585Z,100874.94
2023-02-03T05:46:06.277Z,100870.88
2023-02-03T05:46:49.053Z,100884.38
2023-02-03T05:47:30.684Z,100865.56
2023-02-03T05:48:12.479Z,100881.28
2023-02-03T05:48:54.284Z,100887.25
2023-02-03T05:49:35.932Z,100886.31
2023-02-03T05:50:17.755Z,100883.66
2023-02-03T05:51:00.433Z,100881.41
2023-02-03T05:51:42.679Z,100857.50
2023-02-03T05:52:24.317Z,100883.91
2023-02-03T05:53:07.018Z,100857.25
2023-02-03T05:53:48.643Z,100866.53
2023-02-03T05:54:30.312Z,100871.28
2023-02-03T05:55:11.994Z,100867.50
2023-02-03T05:55:54.289Z,100874.84
2023-02-03T05:56:36.202Z,100878.84
2023-02-03T05:57:19.278Z,100880.16
2023-02-03T05:58:01.221Z,100881.69
2023-02-03T05:58:42.848Z,100864.44
2023-02-03T05:59:24.431Z,100867.78
2023-02-03T06:00:07.449Z,100892.34
2023-02-03T06:00:53.405Z,100889.00
2023-02-03T06:01:35.699Z,100881.94
2023-02-03T06:02:17.308Z,100853.31
2023-02-03T06:03:02.472Z,100873.09
2023-02-03T06:03:46.162Z,100841.38
2023-02-03T06:04:28.264Z,100866.75
2023-02-03T06:05:09.965Z,100881.53
2023-02-03T06:05:51.593Z,100874.34
2023-02-03T06:06:33.982Z,100861.00
2023-02-03T06:07:15.647Z,100861.19
2023-02-03T06:07:57.634Z,100864.78
2023-02-03T06:08:39.270Z,100858.19
2023-02-03T06:09:20.870Z,100828.28
2023-02-03T06:10:02.829Z,100850.34
2023-02-03T06:10:44.501Z,100858.44
2023-02-03T06:11:26.223Z,100857.47
2023-02-03T06:12:07.860Z,100862.84
2023-02-03T06:12:49.950Z,100871.47
2023-02-03T06:13:31.657Z,100860.94
2023-02-03T06:14:13.374Z,100857.72
2023-02-03T06:14:55.024Z,100862.16
2023-02-03T06:15:36.821Z,100853.56
2023-02-03T06:16:18.484Z,100831.06
2023-02-03T06:17:00.201Z,100855.09
2023-02-03T06:17:46.112Z,100856.88
2023-02-03T06:18:27.803Z,100846.75
2023-02-03T06:19:09.441Z,100858.84
2023-02-03T06:19:51.033Z,100804.47
2023-02-03T06:20:33.143Z,100845.09
2023-02-03T06:21:14.796Z,100850.53
2023-02-03T06:21:56.373Z,100849.56
2023-02-03T06:22:41.598Z,100853.88
2023-02-03T06:23:23.365Z,100851.25
2023-02-03T06:24:05.188Z,100842.06
2023-02-03T06:24:48.101Z,100829.16
2023-02-03T06:25:32.073Z,100822.75
2023-02-03T06:26:13.798Z,100843.16
2023-02-03T06:26:55.472Z,100813.47
2023-02-03T06:27:37.273Z,100822.19
2023-02-03T06:28:19.238Z,100823.16
2023-02-03T06:29:00.918Z,100825.66
2023-02-03T06:29:42.919Z,100834.78
2023-02-03T06:30:25.190Z,100835.72
2023-02-03T06:31:07.149Z,100832.13
2023-02-03T06:31:49.025Z,100831.31
2023-02-03T06:32:30.810Z,100819.97
2023-02-03T06:33:12.518Z,100835.97
2023-02-03T06:33:54.239Z,100843.88
2023-02-03T06:34:35.844Z,100811.66
2023-02-03T06:35:18.306Z,100830.84
2023-02-03T06:36:00.195Z,100820.00
2023-02-03T06:36:41.900Z,100810.28
2023-02-03T06:37:24.846Z,100842.91
2023-02-03T06:38:06.562Z,100839.56
2023-02-03T06:38:48.188Z,100843.63
2023-02-03T06:39:29.966Z,100840.03
2023-02-03T06:40:12.287Z,100851.28
2023-02-03T06:40:54.007Z,100825.53
2023-02-03T06:41:35.662Z,100822.06
2023-02-03T06:42:18.544Z,100842.22
2023-02-03T06:43:00.194Z,100847.94
2023-02-03T06:43:41.850Z,100841.69
2023-02-03T06:44:23.543Z,100817.06
2023-02-03T06:45:05.700Z,100855.81
2023-02-03T06:45:47.717Z,100850.56
2023-02-03T06:46:30.472Z,100839.03
2023-02-03T06:47:12.148Z,100845.28
2023-02-03T06:47:53.755Z,100839.03
2023-02-03T06:48:36.587Z,100849.69
2023-02-03T06:49:18.784Z,100847.75
2023-02-03T06:50:00.409Z,100836.06
2023-02-03T06:50:42.145Z,100856.66
2023-02-03T06:51:24.831Z,100841.31
2023-02-03T06:52:06.434Z,100867.31
2023-02-03T06:52:50.103Z,100873.41
2023-02-03T06:53:31.735Z,100861.59
2023-02-03T06:54:14.343Z,100867.19
2023-02-03T06:54:55.942Z,100827.72
2023-02-03T06:55:37.523Z,100868.03
2023-02-03T06:56:19.114Z,100841.78
2023-02-03T06:57:00.809Z,100855.81
2023-02-03T06:57:47.311Z,100859.16
2023-02-03T06:58:29.332Z,100831.75
2023-02-03T06:59:11.106Z,100866.66
2023-02-03T06:59:53.047Z,100862.22
2023-02-03T07:00:34.746Z,100865.69
2023-02-03T07:01:16.564Z,100856.13
2023-02-03T07:01:58.497Z,100831.38
2023-02-03T07:02:40.351Z,100849.72
2023-02-03T07:03:22.046Z,100865.44
2023-02-03T07:04:04.552Z,100860.31
2023-02-03T07:04:46.319Z,100842.28
2023-02-03T07:05:28.227Z,100861.47
2023-02-03T07:06:09.880Z,100851.56
2023-02-03T07:06:51.656Z,100845.72
2023-02-03T07:07:34.067Z,100838.13
2023-02-03T07:08:15.666Z,100865.06
2023-02-03T07:08:59.560Z,100859.22
2023-02-03T07:09:42.676Z,100847.84
2023-02-03T07:10:24.512Z,100847.56
2023-02-03T07:11:06.235Z,100844.75
2023-02-03T07:11:47.923Z,100863.81
2023-02-03T07:12:29.518Z,100863.13
2023-02-03T07:13:11.290Z,100861.72
2023-02-03T07:13:52.917Z,100855.38
2023-02-03T07:14:39.397Z,100840.28
2023-02-03T07:15:21.188Z,100834.19
2023-02-03T07:16:03.000Z,100861.25
2023-02-03T07:16:44.813Z,100863.06
2023-02-03T07:17:26.469Z,100874.75
2023-02-03T07:18:08.221Z,100874.88
2023-02-03T07:18:49.921Z,100844.66
2023-02-03T07:19:31.693Z,100863.47
2023-02-03T07:20:13.383Z,100891.41
2023-02-03T07:20:55.055Z,100882.53
2023-02-03T07:21:36.698Z,100860.84
2023-02-03T07:22:18.486Z,100885.72
2023-02-03T07:23:00.167Z,100855.38
2023-02-03T07:23:41.842Z,100879.69
2023-02-03T07:24:23.439Z,100879.13
2023-02-03T07:25:05.495Z,100884.19
2023-02-03T07:25:47.171Z,100880.75
2023-02-03T07:26:29.011Z,100858.47
2023-02-03T07:27:10.683Z,100891.81
2023-02-03T07:27:52.612Z,100893.38
2023-02-03T07:28:35.799Z,100898.50
2023-02-03T07:29:17.544Z,100904.75
2023-02-03T07:29:59.308Z,100901.97
2023-02-03T07:30:40.999Z,100910.00
2023-02-03T07:31:22.730Z,100907.63
2023-02-03T07:32:04.840Z,100900.81
2023-02-03T07:32:51.160Z,100906.91
2023-02-03T07:33:32.886Z,100899.16
2023-02-03T07:34:14.524Z,100900.44
2023-02-03T07:34:56.128Z,100892.53
2023-02-03T07:35:37.752Z,100908.78
2023-02-03T07:36:19.421Z,100871.78
2023-02-03T07:37:01.156Z,100864.44
2023-02-03T07:37:43.150Z,100875.97
2023-02-03T07:38:27.050Z,100878.72
2023-02-03T07:39:08.678Z,100904.69
2023-02-03T07:39:50.271Z,100884.25
2023-02-03T07:40:31.966Z,100916.09
2023-02-03T07:41:13.615Z,100907.50
2023-02-03T07:41:55.376Z,100919.75
2023-02-03T07:42:45.629Z,100907.38
2023-02-03T07:43:27.355Z,100919.19
2023-02-03T07:44:09.454Z,100918.63
2023-02-03T07:44:51.125Z,100885.09
2023-02-03T07:45:32.764Z,100914.69
2023-02-03T07:46:14.869Z,100907.44
2023-02-03T07:46:56.773Z,100887.66
2023-02-03T07:47:38.876Z,100920.34
2023-02-03T07:48:20.605Z,100924.19
2023-02-03T07:49:04.403Z,100898.06
2023-02-03T07:49:46.118Z,100929.47
2023-02-03T07:50:28.109Z,100920.59
2023-02-03T07:51:09.991Z,100922.53
2023-02-03T07:51:51.655Z,100888.19
2023-02-03T07:52:33.367Z,100917.50
2023-02-03T07:53:15.887Z,100909.91
2023-02-03T07:54:00.349Z,100926.25
2023-02-03T07:54:42.025Z,100922.78
2023-02-03T07:55:23.789Z,100928.03
2023-02-03T07:56:05.743Z,100925.28
2023-02-03T07:56:47.388Z,100922.66
2023-02-03T07:57:29.031Z,100914.44
2023-02-03T07:58:10.763Z,100922.66
2023-02-03T07:58:53.207Z,100918.22
2023-02-03T07:59:34.838Z,100907.09
2023-02-03T08:00:17.010Z,100901.28
2023-02-03T08:00:59.204Z,100931.56
2023-02-03T08:01:40.918Z,100914.88
2023-02-03T08:02:22.752Z,100933.53
2023-02-03T08:03:04.564Z,100911.53
2023-02-03T08:03:46.270Z,100910.31
2023-02-03T08:04:28.024Z,100944.81
2023-02-03T08:05:11.253Z,100934.41
2023-02-03T08:05:53.562Z,100912.38
2023-02-03T08:06:35.612Z,100913.22
2023-02-03T08:07:17.285Z,100927.00
2023-02-03T08:07:59.484Z,100908.41
2023-02-03T08:08:42.043Z,100910.44
2023-02-03T08:09:23.696Z,100921.75
2023-02-03T08:10:06.195Z,100900.03
2023-02-03T08:10:47.904Z,100908.06
2023-02-03T08:11:29.591Z,100882.66
2023-02-03T08:12:11.434Z,100905.19
2023-02-03T08:12:54.230Z,100911.22
2023-02-03T08:13:35.999Z,100913.72
2023-02-03T08:14:17.685Z,100887.44
2023-02-03T08:14:59.702Z,100897.97
2023-02-03T08:15:41.423Z,100874.09
2023-02-03T08:16:23.225Z,100907.03
2023-02-03T08:17:04.966Z,100887.53
2023-02-03T08:17:46.807Z,100896.72
2023-02-03T08:18:33.508Z,100903.53
2023-02-03T08:19:23.615Z,100909.28
2023-02-03T08:20:06.232Z,100917.31
2023-02-03T08:20:48.276Z,100927.34
2023-02-03T08:21:29.958Z,100929.41
2023-02-03T08:22:16.648Z,100921.31
2023-02-03T08:22:58.498Z,100929.16
2023-02-03T08:23:40.213Z,100923.88
2023-02-03T08:24:21.964Z,100929.16
2023-02-03T08:25:04.358Z,100924.84
2023-02-03T08:25:51.182Z,100925.28